sensor_id;sensor_type;location;lat;lon;timestamp;pressure;altitude;pressure_sealevel;temperature;humidity
20015;BME280;61787;42.022;23.078;2023-03-04T00:00:39;96790.94;;;8.93;100.00
20015;BME280;61787;42.022;23.078;2023-03-04T00:01:43;96779.63;;;8.96;100.00
20015;BME280;61787;42.022;23.078;2023-03-04T00:02:45;96781.94;;;8.98;100.00
20015;BME280;61787;42.022;23.078;2023-03-04T00:03:47;96792.00;;;9.01;100.00
20015;BME280;61787;42.022;23.078;2023-03-04T00:09:20;96788.09;;;8.61;100.00
20015;BME280;61787;42.022;23.078;2023-03-04T00:10:21;96790.47;;;8.53;100.00
20015;BME280;61787;42.022;23.078;2023-03-04T00:11:23;96793.19;;;8.45;100.00
20015;BME280;61787;42.022;23.078;2023-03-04T00:12:25;96792.56;;;8.39;100.00
20015;BME280;61787;42.022;23.078;2023-03-04T00:13:26;96785.97;;;8.37;100.00
20015;BME280;61787;42.022;23.078;2023-03-04T00:14:28;96783.59;;;8.44;100.00
20015;BME280;61787;42.022;23.078;2023-03-04T00:15:30;96783.91;;;8.51;100.00
20015;BME280;61787;42.022;23.078;2023-03-04T00:16:32;96776.63;;;8.60;100.00
20015;BME280;61787;42.022;23.078;2023-03-04T00:17:34;96776.91;;;8.67;100.00
20015;BME280;61787;42.022;23.078;2023-03-04T00:18:35;96784.13;;;8.75;100.00
20015;BME280;61787;42.022;23.078;2023-03-04T00:19:37;96777.50;;;8.81;100.00
20015;BME280;61787;42.022;23.078;2023-03-04T00:20:38;96777.75;;;8.88;100.00
20015;BME280;61787;42.022;23.078;2023-03-04T00:21:40;96779.13;;;8.94;100.00
20015;BME280;61787;42.022;23.078;2023-03-04T00:22:42;96770.16;;;8.99;100.00
20015;BME280;61787;42.022;23.078;2023-03-04T00:23:43;96772.97;;;9.03;100.00
20015;BME280;61787;42.022;23.078;2023-03-04T00:24:45;96777.66;;;9.06;99.95
20015;BME280;61787;42.022;23.078;2023-03-04T00:25:46;96773.56;;;9.08;99.76
20015;BME280;61787;42.022;23.078;2023-03-04T00:26:48;96769.16;;;9.12;100.00
20015;BME280;61787;42.022;23.078;2023-03-04T00:27:50;96770.06;;;9.16;100.00
20015;BME280;61787;42.022;23.078;2023-03-04T00:28:52;96767.81;;;9.18;99.99
20015;BME280;61787;42.022;23.078;2023-03-04T00:29:54;96767.50;;;9.20;100.00
20015;BME280;61787;42.022;23.078;2023-03-04T00:30:56;96765.31;;;9.22;100.00
20015;BME280;61787;42.022;23.078;2023-03-04T00:31:58;96770.00;;;9.25;100.00
20015;BME280;61787;42.022;23.078;2023-03-04T00:33:00;96760.53;;;9.27;100.00
20015;BME280;61787;42.022;23.078;2023-03-04T00:34:01;96764.13;;;9.31;99.40
20015;BME280;61787;42.022;23.078;2023-03-04T00:35:05;96774.53;;;9.33;99.26
20015;BME280;61787;42.022;23.078;2023-03-04T00:36:07;96762.69;;;9.34;99.55
20015;BME280;61787;42.022;23.078;2023-03-04T00:37:08;96763.94;;;9.36;99.49
20015;BME280;61787;42.022;23.078;2023-03-04T00:38:10;96759.38;;;9.37;99.76
20015;BME280;61787;42.022;23.078;2023-03-04T00:39:12;96766.75;;;9.40;99.10
20015;BME280;61787;42.022;23.078;2023-03-04T00:40:14;96765.63;;;9.41;98.79
20015;BME280;61787;42.022;23.078;2023-03-04T00:41:15;96763.75;;;9.41;98.68
20015;BME280;61787;42.022;23.078;2023-03-04T00:42:17;96773.00;;;9.44;98.45
20015;BME280;61787;42.022;23.078;2023-03-04T00:43:19;96769.22;;;9.45;98.77
20015;BME280;61787;42.022;23.078;2023-03-04T00:44:21;96769.69;;;9.47;97.92
20015;BME280;61787;42.022;23.078;2023-03-04T00:45:22;96770.13;;;9.49;98.18
20015;BME280;61787;42.022;23.078;2023-03-04T00:46:24;96766.34;;;9.50;98.86
20015;BME280;61787;42.022;23.078;2023-03-04T00:47:25;96759.56;;;9.53;98.16
20015;BME280;61787;42.022;23.078;2023-03-04T00:48:27;96768.84;;;9.55;97.53
20015;BME280;61787;42.022;23.078;2023-03-04T00:49:29;96768.19;;;9.58;97.59
20015;BME280;61787;42.022;23.078;2023-03-04T00:50:30;96767.53;;;9.61;97.55
20015;BME280;61787;42.022;23.078;2023-03-04T00:51:32;96772.88;;;9.61;98.24
20015;BME280;61787;42.022;23.078;2023-03-04T00:52:34;96768.31;;;9.62;98.49
20015;BME280;61787;42.022;23.078;2023-03-04T00:53:36;96770.69;;;9.63;97.08
20015;BME280;61787;42.022;23.078;2023-03-04T00:54:37;96771.13;;;9.65;97.78
20015;BME280;61787;42.022;23.078;2023-03-04T00:55:39;96761.34;;;9.69;97.23
20015;BME280;61787;42.022;23.078;2023-03-04T00:56:40;96763.34;;;9.72;97.22
20015;BME280;61787;42.022;23.078;2023-03-04T00:57:42;96762.25;;;9.73;96.62
20015;BME280;61787;42.022;23.078;2023-03-04T00:58:43;96762.38;;;9.77;95.99
20015;BME280;61787;42.022;23.078;2023-03-04T00:59:45;96761.25;;;9.78;97.31
20015;BME280;61787;42.022;23.078;2023-03-04T01:00:47;96760.78;;;9.76;96.65
20015;BME280;61787;42.022;23.078;2023-03-04T01:01:49;96758.47;;;9.74;96.08
20015;BME280;61787;42.022;23.078;2023-03-04T01:02:50;96765.31;;;9.63;96.16
20015;BME280;61787;42.022;23.078;2023-03-04T01:03:52;96765.53;;;9.58;95.88
20015;BME280;61787;42.022;23.078;2023-03-04T01:04:53;96761.91;;;9.54;96.24
20015;BME280;61787;42.022;23.078;2023-03-04T01:05:55;96759.91;;;9.51;96.90
20015;BME280;61787;42.022;23.078;2023-03-04T01:06:56;96765.13;;;9.48;95.32
20015;BME280;61787;42.022;23.078;2023-03-04T01:07:58;96767.31;;;9.25;93.19
20015;BME280;61787;42.022;23.078;2023-03-04T01:09:00;96765.53;;;9.08;93.61
20015;BME280;61787;42.022;23.078;2023-03-04T01:10:03;96764.78;;;8.99;94.18
20015;BME280;61787;42.022;23.078;2023-03-04T01:11:05;96764.97;;;8.94;95.79
20015;BME280;61787;42.022;23.078;2023-03-04T01:12:07;96761.72;;;8.88;97.32
20015;BME280;61787;42.022;23.078;2023-03-04T01:13:09;96761.63;;;8.76;98.40
20015;BME280;61787;42.022;23.078;2023-03-04T01:14:10;96761.50;;;8.64;100.00
20015;BME280;61787;42.022;23.078;2023-03-04T01:15:13;96765.59;;;8.70;100.00
20015;BME280;61787;42.022;23.078;2023-03-04T01:16:15;96760.50;;;8.77;100.00
20015;BME280;61787;42.022;23.078;2023-03-04T01:17:16;96761.44;;;8.81;100.00
20015;BME280;61787;42.022;23.078;2023-03-04T01:18:18;96763.94;;;8.86;100.00
20015;BME280;61787;42.022;23.078;2023-03-04T01:19:20;96764.72;;;8.87;100.00
20015;BME280;61787;42.022;23.078;2023-03-04T01:20:21;96761.22;;;8.57;98.45
20015;BME280;61787;42.022;23.078;2023-03-04T01:21:23;96761.28;;;8.40;98.52
20015;BME280;61787;42.022;23.078;2023-03-04T01:22:25;96762.25;;;8.35;99.97
20015;BME280;61787;42.022;23.078;2023-03-04T01:23:26;96758.00;;;8.34;99.85
20015;BME280;61787;42.022;23.078;2023-03-04T01:24:29;96757.06;;;8.39;99.36
20015;BME280;61787;42.022;23.078;2023-03-04T01:25:30;96759.38;;;8.49;99.47
20015;BME280;61787;42.022;23.078;2023-03-04T01:26:32;96751.66;;;8.56;98.89
20015;BME280;61787;42.022;23.078;2023-03-04T01:27:33;96756.16;;;8.64;98.26
20015;BME280;61787;42.022;23.078;2023-03-04T01:28:35;96754.88;;;8.70;97.98
20015;BME280;61787;42.022;23.078;2023-03-04T01:29:37;96761.16;;;8.74;96.84
20015;BME280;61787;42.022;23.078;2023-03-04T01:30:38;96765.84;;;8.77;96.37
20015;BME280;61787;42.022;23.078;2023-03-04T01:31:40;96752.28;;;8.82;95.85
20015;BME280;61787;42.022;23.078;2023-03-04T01:32:41;96755.56;;;8.88;95.95
20015;BME280;61787;42.022;23.078;2023-03-04T01:33:43;96747.53;;;8.96;95.65
20015;BME280;61787;42.022;23.078;2023-03-04T01:34:45;96746.22;;;9.03;96.06
20015;BME280;61787;42.022;23.078;2023-03-04T01:35:46;96748.06;;;9.11;95.81
20015;BME280;61787;42.022;23.078;2023-03-04T01:36:48;96744.53;;;9.19;95.65
20015;BME280;61787;42.022;23.078;2023-03-04T01:37:49;96744.53;;;9.19;95.89
20015;BME280;61787;42.022;23.078;2023-03-04T01:38:51;96738.41;;;9.18;94.95
20015;BME280;61787;42.022;23.078;2023-03-04T01:39:53;96733.84;;;9.19;95.29
20015;BME280;61787;42.022;23.078;2023-03-04T01:40:54;96742.84;;;9.14;95.19
20015;BME280;61787;42.022;23.078;2023-03-04T01:41:56;96737.75;;;9.01;95.30
20015;BME280;61787;42.022;23.078;2023-03-04T01:42:58;96736.34;;;8.94;95.28
20015;BME280;61787;42.022;23.078;2023-03-04T01:44:00;96735.44;;;8.90;94.41
20015;BME280;61787;42.022;23.078;2023-03-04T01:45:04;96738.75;;;8.87;94.63
20015;BME280;61787;42.022;23.078;2023-03-04T01:46:06;96736.84;;;8.88;95.07
20015;BME280;61787;42.022;23.078;2023-03-04T01:47:10;96738.44;;;8.89;93.93
20015;BME280;61787;42.022;23.078;2023-03-04T01:48:13;96739.88;;;8.86;93.38
20015;BME280;61787;42.022;23.078;2023-03-04T01:49:18;96740.25;;;8.76;94.42
20015;BME280;61787;42.022;23.078;2023-03-04T01:50:26;96737.28;;;8.69;95.02
20015;BME280;61787;42.022;23.078;2023-03-04T01:51:28;96731.38;;;8.55;95.65
20015;BME280;61787;42.022;23.078;2023-03-04T01:52:30;96728.63;;;8.26;97.58
20015;BME280;61787;42.022;23.078;2023-03-04T01:53:32;96730.69;;;8.11;99.99
20015;BME280;61787;42.022;23.078;2023-03-04T01:54:34;96721.44;;;8.00;100.00
20015;BME280;61787;42.022;23.078;2023-03-04T01:55:35;96725.25;;;7.99;100.00
20015;BME280;61787;42.022;23.078;2023-03-04T01:56:38;96717.25;;;7.99;100.00
20015;BME280;61787;42.022;23.078;2023-03-04T01:57:40;96725.38;;;8.03;100.00
20015;BME280;61787;42.022;23.078;2023-03-04T01:58:42;96718.63;;;8.05;100.00
20015;BME280;61787;42.022;23.078;2023-03-04T01:59:44;96723.78;;;8.10;100.00
20015;BME280;61787;42.022;23.078;2023-03-04T02:00:46;96723.78;;;8.10;100.00
20015;BME280;61787;42.022;23.078;2023-03-04T02:01:50;96719.84;;;8.17;100.00
20015;BME280;61787;42.022;23.078;2023-03-04T02:02:56;96722.81;;;8.24;100.00
20015;BME280;61787;42.022;23.078;2023-03-04T02:03:58;96722.03;;;8.32;100.00
20015;BME280;61787;42.022;23.078;2023-03-04T02:05:00;96716.06;;;8.35;100.00
20015;BME280;61787;42.022;23.078;2023-03-04T02:06:02;96710.25;;;8.33;100.00
20015;BME280;61787;42.022;23.078;2023-03-04T02:07:04;96703.81;;;8.34;100.00
20015;BME280;61787;42.022;23.078;2023-03-04T02:08:07;96707.88;;;8.40;100.00
20015;BME280;61787;42.022;23.078;2023-03-04T02:09:09;96702.56;;;8.23;99.02
20015;BME280;61787;42.022;23.078;2023-03-04T02:10:11;96705.75;;;8.07;99.38
20015;BME280;61787;42.022;23.078;2023-03-04T02:11:13;96700.41;;;8.07;100.00
20015;BME280;61787;42.022;23.078;2023-03-04T02:12:15;96703.69;;;8.13;99.75
20015;BME280;61787;42.022;23.078;2023-03-04T02:13:19;96712.00;;;8.11;100.00
20015;BME280;61787;42.022;23.078;2023-03-04T02:14:21;96712.00;;;8.11;100.00
20015;BME280;61787;42.022;23.078;2023-03-04T02:15:23;96713.59;;;8.12;99.39
20015;BME280;61787;42.022;23.078;2023-03-04T02:16:26;96709.97;;;8.08;100.00
20015;BME280;61787;42.022;23.078;2023-03-04T02:17:28;96710.16;;;8.03;99.69
20015;BME280;61787;42.022;23.078;2023-03-04T02:18:29;96711.25;;;8.02;99.70
20015;BME280;61787;42.022;23.078;2023-03-04T02:19:41;96708.75;;;7.97;99.62
20015;BME280;61787;42.022;23.078;2023-03-04T02:20:51;96713.94;;;7.85;99.99
20015;BME280;61787;42.022;23.078;2023-03-04T02:21:54;96702.81;;;7.75;100.00
20015;BME280;61787;42.022;23.078;2023-03-04T02:24:44;96701.16;;;7.53;100.00
20015;BME280;61787;42.022;23.078;2023-03-04T02:27:12;96698.81;;;7.43;100.00
20015;BME280;61787;42.022;23.078;2023-03-04T02:28:14;96693.91;;;7.45;100.00
20015;BME280;61787;42.022;23.078;2023-03-04T02:29:16;96695.31;;;7.51;100.00
20015;BME280;61787;42.022;23.078;2023-03-04T02:30:21;96701.75;;;7.50;100.00
20015;BME280;61787;42.022;23.078;2023-03-04T02:32:27;96701.59;;;7.55;100.00
20015;BME280;61787;42.022;23.078;2023-03-04T02:33:29;96698.63;;;7.56;100.00
20015;BME280;61787;42.022;23.078;2023-03-04T02:34:33;96699.72;;;7.64;100.00
20015;BME280;61787;42.022;23.078;2023-03-04T02:35:35;96696.91;;;7.69;100.00
20015;BME280;61787;42.022;23.078;2023-03-04T02:36:38;96694.66;;;7.71;100.00
20015;BME280;61787;42.022;23.078;2023-03-04T02:37:40;96696.72;;;7.74;100.00
20015;BME280;61787;42.022;23.078;2023-03-04T02:38:42;96698.75;;;7.77;100.00
20015;BME280;61787;42.022;23.078;2023-03-04T02:39:45;96699.22;;;7.79;100.00
20015;BME280;61787;42.022;23.078;2023-03-04T02:40:50;96699.38;;;7.83;100.00
20015;BME280;61787;42.022;23.078;2023-03-04T02:41:55;96694.16;;;7.86;100.00
20015;BME280;61787;42.022;23.078;2023-03-04T02:43:00;96694.78;;;7.92;100.00
20015;BME280;61787;42.022;23.078;2023-03-04T02:44:02;96690.72;;;7.94;100.00
20015;BME280;61787;42.022;23.078;2023-03-04T02:45:04;96689.13;;;7.93;100.00
20015;BME280;61787;42.022;23.078;2023-03-04T02:46:07;96689.28;;;7.97;100.00
20015;BME280;61787;42.022;23.078;2023-03-04T02:47:12;96688.34;;;7.93;100.00
20015;BME280;61787;42.022;23.078;2023-03-04T02:48:18;96689.81;;;7.73;100.00
20015;BME280;61787;42.022;23.078;2023-03-04T02:49:21;96688.88;;;7.69;100.00
20015;BME280;61787;42.022;23.078;2023-03-04T02:50:25;96692.97;;;7.58;100.00
20015;BME280;61787;42.022;23.078;2023-03-04T02:51:28;96689.69;;;7.52;100.00
20015;BME280;61787;42.022;23.078;2023-03-04T02:52:29;96686.69;;;7.45;100.00
20015;BME280;61787;42.022;23.078;2023-03-04T02:53:31;96690.00;;;7.51;100.00
20015;BME280;61787;42.022;23.078;2023-03-04T02:54:33;96692.81;;;7.54;100.00
20015;BME280;61787;42.022;23.078;2023-03-04T02:55:35;96692.97;;;7.58;100.00
20015;BME280;61787;42.022;23.078;2023-03-04T02:56:37;96690.94;;;7.63;100.00
20015;BME280;61787;42.022;23.078;2023-03-04T02:57:38;96694.84;;;7.66;100.00
20015;BME280;61787;42.022;23.078;2023-03-04T02:58:40;96697.03;;;7.72;100.00
20015;BME280;61787;42.022;23.078;2023-03-04T02:59:42;96701.25;;;7.82;100.00
20015;BME280;61787;42.022;23.078;2023-03-04T03:00:43;96699.97;;;7.88;100.00
20015;BME280;61787;42.022;23.078;2023-03-04T03:01:45;96694.47;;;7.93;100.00
20015;BME280;61787;42.022;23.078;2023-03-04T03:02:46;96699.34;;;8.00;100.00
20015;BME280;61787;42.022;23.078;2023-03-04T03:03:48;96697.25;;;8.05;100.00
20015;BME280;61787;42.022;23.078;2023-03-04T03:04:50;96702.09;;;8.12;100.00
20015;BME280;61787;42.022;23.078;2023-03-04T03:05:53;96700.38;;;8.16;100.00
20015;BME280;61787;42.022;23.078;2023-03-04T03:06:54;96702.09;;;8.21;100.00
20015;BME280;61787;42.022;23.078;2023-03-04T03:07:56;96701.94;;;8.26;100.00
20015;BME280;61787;42.022;23.078;2023-03-04T03:08:57;96702.88;;;8.30;100.00
20015;BME280;61787;42.022;23.078;2023-03-04T03:10:00;96701.91;;;8.34;100.00
20015;BME280;61787;42.022;23.078;2023-03-04T03:11:02;96696.25;;;8.36;100.00
20015;BME280;61787;42.022;23.078;2023-03-04T03:12:03;96695.59;;;8.39;100.00
20015;BME280;61787;42.022;23.078;2023-03-04T03:13:05;96698.44;;;8.34;99.18
20015;BME280;61787;42.022;23.078;2023-03-04T03:14:07;96693.44;;;8.24;99.75
20015;BME280;61787;42.022;23.078;2023-03-04T03:15:08;96697.38;;;8.18;99.65
20015;BME280;61787;42.022;23.078;2023-03-04T03:16:10;96695.97;;;8.11;100.00
20015;BME280;61787;42.022;23.078;2023-03-04T03:17:12;96695.84;;;8.08;100.00
20015;BME280;61787;42.022;23.078;2023-03-04T03:18:13;96697.91;;;8.02;100.00
20015;BME280;61787;42.022;23.078;2023-03-04T03:19:15;96701.22;;;7.91;100.00
20015;BME280;61787;42.022;23.078;2023-03-04T03:20:17;96704.25;;;7.72;100.00
20015;BME280;61787;42.022;23.078;2023-03-04T03:21:19;96700.97;;;7.58;100.00
20015;BME280;61787;42.022;23.078;2023-03-04T03:22:20;96700.81;;;7.46;100.00
20015;BME280;61787;42.022;23.078;2023-03-04T03:23:22;96699.75;;;7.38;100.00
20015;BME280;61787;42.022;23.078;2023-03-04T03:24:24;96704.13;;;7.25;100.00
20015;BME280;61787;42.022;23.078;2023-03-04T03:25:25;96700.97;;;7.06;100.00
20015;BME280;61787;42.022;23.078;2023-03-04T03:26:27;96704.25;;;6.86;100.00
20015;BME280;61787;42.022;23.078;2023-03-04T03:27:28;96700.78;;;6.77;100.00
20015;BME280;61787;42.022;23.078;2023-03-04T03:28:30;96698.91;;;6.86;100.00
20015;BME280;61787;42.022;23.078;2023-03-04T03:29:32;96700.50;;;6.87;100.00
20015;BME280;61787;42.022;23.078;2023-03-04T03:30:33;96706.44;;;6.84;100.00
20015;BME280;61787;42.022;23.078;2023-03-04T03:31:35;96705.34;;;6.85;100.00
20015;BME280;61787;42.022;23.078;2023-03-04T03:32:37;96707.06;;;6.90;100.00
20015;BME280;61787;42.022;23.078;2023-03-04T03:33:38;96705.53;;;6.97;100.00
20015;BME280;61787;42.022;23.078;2023-03-04T03:34:40;96705.84;;;7.04;100.00
20015;BME280;61787;42.022;23.078;2023-03-04T03:35:41;96700.50;;;7.04;100.00
20015;BME280;61787;42.022;23.078;2023-03-04T03:36:43;96702.88;;;7.06;100.00
20015;BME280;61787;42.022;23.078;2023-03-04T03:37:44;96703.94;;;6.96;100.00
20015;BME280;61787;42.022;23.078;2023-03-04T03:38:46;96707.38;;;6.88;100.00
20015;BME280;61787;42.022;23.078;2023-03-04T03:39:48;96700.50;;;6.87;100.00
20015;BME280;61787;42.022;23.078;2023-03-04T03:40:49;96697.34;;;6.85;100.00
20015;BME280;61787;42.022;23.078;2023-03-04T03:41:51;96697.19;;;6.90;100.00
20015;BME280;61787;42.022;23.078;2023-03-04T03:42:52;96704.25;;;7.03;100.00
20015;BME280;61787;42.022;23.078;2023-03-04T03:43:54;96702.56;;;7.07;100.00
20015;BME280;61787;42.022;23.078;2023-03-04T03:44:55;96697.06;;;7.12;100.00
20015;BME280;61787;42.022;23.078;2023-03-04T03:45:57;96697.38;;;7.19;100.00
20015;BME280;61787;42.022;23.078;2023-03-04T03:46:58;96695.78;;;7.18;100.00
20015;BME280;61787;42.022;23.078;2023-03-04T03:48:00;96692.81;;;7.20;100.00
20015;BME280;61787;42.022;23.078;2023-03-04T03:49:02;96690.78;;;7.25;100.00
20015;BME280;61787;42.022;23.078;2023-03-04T03:50:04;96688.59;;;7.27;100.00
20015;BME280;61787;42.022;23.078;2023-03-04T03:51:05;96693.94;;;7.27;100.00
20015;BME280;61787;42.022;23.078;2023-03-04T03:52:07;96694.41;;;7.21;100.00
20015;BME280;61787;42.022;23.078;2023-03-04T03:53:09;96695.66;;;7.06;100.00
20015;BME280;61787;42.022;23.078;2023-03-04T03:54:10;96690.00;;;6.99;100.00
20015;BME280;61787;42.022;23.078;2023-03-04T03:55:12;96689.53;;;6.97;100.00
20015;BME280;61787;42.022;23.078;2023-03-04T03:56:14;96698.31;;;7.06;100.00
20015;BME280;61787;42.022;23.078;2023-03-04T03:57:15;96694.72;;;7.11;100.00
20015;BME280;61787;42.022;23.078;2023-03-04T03:58:17;96687.97;;;7.13;100.00
20015;BME280;61787;42.022;23.078;2023-03-04T03:59:18;96689.84;;;7.21;100.00
20015;BME280;61787;42.022;23.078;2023-03-04T04:00:21;96698.50;;;7.27;100.00
20015;BME280;61787;42.022;23.078;2023-03-04T04:01:22;96698.63;;;7.31;100.00
20015;BME280;61787;42.022;23.078;2023-03-04T04:02:24;96697.06;;;7.29;100.00
20015;BME280;61787;42.022;23.078;2023-03-04T04:03:25;96702.25;;;7.26;100.00
20015;BME280;61787;42.022;23.078;2023-03-04T04:04:27;96695.03;;;7.26;100.00
20015;BME280;61787;42.022;23.078;2023-03-04T04:05:28;96699.56;;;7.35;100.00
20015;BME280;61787;42.022;23.078;2023-03-04T04:06:30;96694.56;;;7.42;100.00
20015;BME280;61787;42.022;23.078;2023-03-04T04:07:32;96691.88;;;7.50;100.00
20015;BME280;61787;42.022;23.078;2023-03-04T04:08:33;96692.66;;;7.51;100.00
20015;BME280;61787;42.022;23.078;2023-03-04T04:09:35;96692.38;;;7.44;100.00
20015;BME280;61787;42.022;23.078;2023-03-04T04:10:37;96693.91;;;7.45;100.00
20015;BME280;61787;42.022;23.078;2023-03-04T04:11:38;96692.66;;;7.51;100.00
20015;BME280;61787;42.022;23.078;2023-03-04T04:12:40;96694.06;;;7.57;100.00
20015;BME280;61787;42.022;23.078;2023-03-04T04:13:42;96700.34;;;7.61;100.00
20015;BME280;61787;42.022;23.078;2023-03-04T04:14:43;96698.75;;;7.60;99.98
20015;BME280;61787;42.022;23.078;2023-03-04T04:15:45;96694.06;;;7.57;99.42
20015;BME280;61787;42.022;23.078;2023-03-04T04:16:47;96696.75;;;7.57;99.27
20015;BME280;61787;42.022;23.078;2023-03-04T04:17:48;96699.88;;;7.59;98.71
20015;BME280;61787;42.022;23.078;2023-03-04T04:18:50;96702.41;;;7.64;98.63
20015;BME280;61787;42.022;23.078;2023-03-04T04:19:51;96699.09;;;7.67;98.46
20015;BME280;61787;42.022;23.078;2023-03-04T04:20:53;96696.09;;;7.60;98.48
20015;BME280;61787;42.022;23.078;2023-03-04T04:21:55;96707.41;;;7.57;98.35
20015;BME280;61787;42.022;23.078;2023-03-04T04:22:56;96699.88;;;7.59;98.00
20015;BME280;61787;42.022;23.078;2023-03-04T04:23:58;96704.75;;;7.48;97.19
20015;BME280;61787;42.022;23.078;2023-03-04T04:24:59;96698.31;;;7.41;97.65
20015;BME280;61787;42.022;23.078;2023-03-04T04:26:01;96704.28;;;7.38;98.13
20015;BME280;61787;42.022;23.078;2023-03-04T04:27:03;96704.44;;;7.41;98.62
20015;BME280;61787;42.022;23.078;2023-03-04T04:28:04;96701.75;;;7.50;98.25
20015;BME280;61787;42.022;23.078;2023-03-04T04:29:07;96705.69;;;7.52;98.42
20015;BME280;61787;42.022;23.078;2023-03-04T04:30:09;96704.75;;;7.57;97.70
20015;BME280;61787;42.022;23.078;2023-03-04T04:31:11;96697.66;;;7.61;97.93
20015;BME280;61787;42.022;23.078;2023-03-04T04:32:13;96699.25;;;7.62;97.93
20015;BME280;61787;42.022;23.078;2023-03-04T04:33:15;96698.59;;;7.65;97.80
20015;BME280;61787;42.022;23.078;2023-03-04T04:34:17;96703.50;;;7.63;97.56
20015;BME280;61787;42.022;23.078;2023-03-04T04:35:19;96708.50;;;7.64;97.74
20015;BME280;61787;42.022;23.078;2023-03-04T04:36:20;96702.41;;;7.64;97.80
20015;BME280;61787;42.022;23.078;2023-03-04T04:37:22;96707.72;;;7.72;97.60
20015;BME280;61787;42.022;23.078;2023-03-04T04:38:23;96705.00;;;7.81;96.51
20015;BME280;61787;42.022;23.078;2023-03-04T04:39:26;96703.13;;;7.82;96.13
20015;BME280;61787;42.022;23.078;2023-03-04T04:40:27;96705.19;;;7.76;96.04
20015;BME280;61787;42.022;23.078;2023-03-04T04:41:35;96708.00;;;7.71;96.66
20015;BME280;61787;42.022;23.078;2023-03-04T04:42:37;96704.25;;;7.72;96.70
20015;BME280;61787;42.022;23.078;2023-03-04T04:43:38;96700.50;;;7.73;96.69
20015;BME280;61787;42.022;23.078;2023-03-04T04:44:40;96702.50;;;7.76;96.75
20015;BME280;61787;42.022;23.078;2023-03-04T04:45:41;96709.13;;;7.79;97.02
20015;BME280;61787;42.022;23.078;2023-03-04T04:46:43;96702.06;;;7.74;96.40
20015;BME280;61787;42.022;23.078;2023-03-04T04:47:44;96698.59;;;7.65;97.55
20015;BME280;61787;42.022;23.078;2023-03-04T04:48:46;96697.53;;;7.57;98.52
20015;BME280;61787;42.022;23.078;2023-03-04T04:49:48;96698.94;;;7.55;99.30
20015;BME280;61787;42.022;23.078;2023-03-04T04:50:53;96703.00;;;7.61;99.50
20015;BME280;61787;42.022;23.078;2023-03-04T04:51:55;96696.56;;;7.62;99.42
20015;BME280;61787;42.022;23.078;2023-03-04T04:52:57;96702.41;;;7.64;99.80
20015;BME280;61787;42.022;23.078;2023-03-04T04:54:00;96706.16;;;7.63;98.94
20015;BME280;61787;42.022;23.078;2023-03-04T04:55:02;96703.31;;;7.68;99.54
20015;BME280;61787;42.022;23.078;2023-03-04T04:56:16;96701.09;;;7.70;99.16
20015;BME280;61787;42.022;23.078;2023-03-04T04:57:17;96700.16;;;7.75;98.59
20015;BME280;61787;42.022;23.078;2023-03-04T04:58:19;96704.22;;;7.81;98.87
20015;BME280;61787;42.022;23.078;2023-03-04T04:59:21;96707.38;;;7.83;98.68
20015;BME280;61787;42.022;23.078;2023-03-04T05:00:22;96706.75;;;7.77;98.91
20015;BME280;61787;42.022;23.078;2023-03-04T05:01:24;96704.41;;;7.67;98.75
20015;BME280;61787;42.022;23.078;2023-03-04T05:02:26;96705.84;;;7.56;99.45
20015;BME280;61787;42.022;23.078;2023-03-04T05:03:28;96710.72;;;7.45;99.96
20015;BME280;61787;42.022;23.078;2023-03-04T05:04:29;96706.63;;;7.31;100.00
20015;BME280;61787;42.022;23.078;2023-03-04T05:05:31;96712.28;;;7.29;100.00
20015;BME280;61787;42.022;23.078;2023-03-04T05:06:33;96710.56;;;7.24;100.00
20015;BME280;61787;42.022;23.078;2023-03-04T05:07:34;96705.38;;;7.19;100.00
20015;BME280;61787;42.022;23.078;2023-03-04T05:08:36;96705.03;;;7.04;100.00
20015;BME280;61787;42.022;23.078;2023-03-04T05:09:37;96713.03;;;6.95;100.00
20015;BME280;61787;42.022;23.078;2023-03-04T05:10:39;96707.38;;;6.88;100.00
20015;BME280;61787;42.022;23.078;2023-03-04T05:11:40;96705.34;;;6.85;100.00
20015;BME280;61787;42.022;23.078;2023-03-04T05:12:43;96713.47;;;6.80;100.00
20015;BME280;61787;42.022;23.078;2023-03-04T05:13:46;96713.28;;;6.68;100.00
20015;BME280;61787;42.022;23.078;2023-03-04T05:14:48;96713.75;;;6.61;100.00
20015;BME280;61787;42.022;23.078;2023-03-04T05:15:51;96715.78;;;6.56;100.00
20015;BME280;61787;42.022;23.078;2023-03-04T05:16:53;96717.81;;;6.59;100.00
20015;BME280;61787;42.022;23.078;2023-03-04T05:17:55;96712.31;;;6.55;100.00
20015;BME280;61787;42.022;23.078;2023-03-04T05:18:57;96716.38;;;6.53;100.00
20015;BME280;61787;42.022;23.078;2023-03-04T05:19:59;96716.38;;;6.53;100.00
20015;BME280;61787;42.022;23.078;2023-03-04T05:21:02;96723.28;;;6.54;100.00
20015;BME280;61787;42.022;23.078;2023-03-04T05:22:04;96716.38;;;6.53;100.00
20015;BME280;61787;42.022;23.078;2023-03-04T05:23:06;96717.59;;;6.47;100.00
20015;BME280;61787;42.022;23.078;2023-03-04T05:24:07;96719.78;;;6.36;100.00
20015;BME280;61787;42.022;23.078;2023-03-04T05:25:09;96720.09;;;6.34;100.00
20015;BME280;61787;42.022;23.078;2023-03-04T05:26:16;96725.41;;;6.34;100.00
20015;BME280;61787;42.022;23.078;2023-03-04T05:27:18;96720.88;;;6.35;100.00
20015;BME280;61787;42.022;23.078;2023-03-04T05:28:19;96727.00;;;6.35;100.00
20015;BME280;61787;42.022;23.078;2023-03-04T05:29:21;96719.94;;;6.39;100.00
20015;BME280;61787;42.022;23.078;2023-03-04T05:30:22;96712.41;;;6.41;100.00
20015;BME280;61787;42.022;23.078;2023-03-04T05:31:24;96715.41;;;6.40;100.00
20015;BME280;61787;42.022;23.078;2023-03-04T05:32:26;96717.28;;;6.39;100.00
20015;BME280;61787;42.022;23.078;2023-03-04T05:33:28;96711.34;;;6.42;100.00
20015;BME280;61787;42.022;23.078;2023-03-04T05:34:30;96718.59;;;6.51;100.00
20015;BME280;61787;42.022;23.078;2023-03-04T05:35:31;96724.50;;;6.48;100.00